»·PEaware :: N9298L KBUR-KLAS

N9298L :: KBUR-KLAS

FLIGHT INFORMATION

Flight Status: Arrived
Operator: Privately registered:
United States
More flights under this callsign
Pilot: Brendan O. (14500)
Aircraft: PIPER PA-32 SARATOGA
(PA32)
More flights by this aircraft type
Origin: KBUR Bob Hope-Burbank
United States
Destination: KLAS McCarran Intl
United States
More flights between these airports :: More routes between these airports
Route: +VNY3 DAG CRESO3
File this flight plan on PilotEdge
Remarks: I-5 rating
Altitude:
(Current/Filed)
10,000ft
Speed:
(Current/Filed)
140kts
Departed: 24-Mar-17 04:42 PM
Arrived: 24-Mar-17 06:04 PM
Distance/Time
Traveled:
193nm/1:21
Distance/Time
To Go:
Arrived

Flight Plot

Page will automatically refresh every two minutes.


Map Options




Map Legend


Flown Route
Filed Route
Departure Airport
Arrival Airport
Navaid (VOR, NDB)
Fix

Horizontal Profiles

Position Reports

Time Latitude Longitude Heading Altitude Ground
Speed
24-Mar-17 16:13 34.200196 -118.358747 263 719ft 0kts
24-Mar-17 16:14 34.200196 -118.358747 263 719ft 0kts
24-Mar-17 16:15 34.200196 -118.358747 263 719ft 0kts
24-Mar-17 16:16 34.200196 -118.358747 263 719ft 0kts
24-Mar-17 16:17 34.200196 -118.358747 263 719ft 0kts
24-Mar-17 16:18 34.200196 -118.358747 263 719ft 0kts
24-Mar-17 16:19 34.200196 -118.358747 263 719ft 0kts
24-Mar-17 16:20 34.200196 -118.358747 263 719ft 0kts
24-Mar-17 16:21 34.200196 -118.358747 263 719ft 0kts
24-Mar-17 16:22 34.200196 -118.358747 263 719ft 0kts
24-Mar-17 16:23 34.200196 -118.358747 263 719ft 0kts
24-Mar-17 16:24 34.200196 -118.358747 263 719ft 0kts
24-Mar-17 16:25 34.200196 -118.358747 263 719ft 0kts
24-Mar-17 16:26 34.200196 -118.358747 263 719ft 0kts
24-Mar-17 16:27 34.200196 -118.358747 263 719ft 0kts
24-Mar-17 16:28 34.200196 -118.358747 263 719ft 0kts
24-Mar-17 16:29 34.200193 -118.358774 262 719ft 3kts
24-Mar-17 16:30 34.199870 -118.359173 122 718ft 0kts
24-Mar-17 16:31 34.199870 -118.359173 122 718ft 0kts
24-Mar-17 16:32 34.199870 -118.359173 122 718ft 0kts
24-Mar-17 16:33 34.199870 -118.359173 122 718ft 0kts
24-Mar-17 16:34 34.199870 -118.359173 122 718ft 0kts
24-Mar-17 16:35 34.199870 -118.359173 122 718ft 0kts
24-Mar-17 16:36 34.199870 -118.359173 122 718ft 0kts
24-Mar-17 16:37 34.199870 -118.359173 122 718ft 0kts
24-Mar-17 16:38 34.200424 -118.358333 348 719ft 10kts
24-Mar-17 16:39 34.204111 -118.359338 347 734ft 20kts
24-Mar-17 16:40 34.209397 -118.360786 1 757ft 9kts
24-Mar-17 16:41 34.209620 -118.360712 67 758ft 0kts
24-Mar-17 16:42 34.209620 -118.360712 67 758ft 0kts
24-Mar-17 16:43 34.194949 -118.355207 169 1076ft 116kts
24-Mar-17 16:44 34.167743 -118.379098 224 1825ft 130kts
24-Mar-17 16:45 34.143925 -118.407347 225 2482ft 121kts
24-Mar-17 16:46 34.120720 -118.434982 241 3145ft 120kts
24-Mar-17 16:47 34.134536 -118.469226 302 3819ft 124kts
24-Mar-17 16:48 34.153735 -118.501648 302 4476ft 123kts
24-Mar-17 16:49 34.172032 -118.534271 301 5140ft 121kts
24-Mar-17 16:50 34.189492 -118.566781 302 5811ft 119kts
24-Mar-17 16:51 34.214640 -118.555689 29 6463ft 131kts
24-Mar-17 16:52 34.242863 -118.530318 32 7120ft 126kts
24-Mar-17 16:53 34.271112 -118.505010 32 7790ft 140kts
24-Mar-17 16:54 34.302901 -118.476561 32 8478ft 161kts
24-Mar-17 16:55 34.339484 -118.443625 33 9156ft 177kts
24-Mar-17 16:56 34.377903 -118.409020 33 9819ft 184kts
24-Mar-17 16:57 34.417742 -118.373142 33 10484ft 188kts
24-Mar-17 16:58 34.458376 -118.336519 33 11023ft 197kts
24-Mar-17 16:59 34.493819 -118.283881 51 11003ft 218kts
24-Mar-17 17:00 34.529375 -118.226994 51 10997ft 222kts
24-Mar-17 17:01 34.564881 -118.170008 50 10995ft 223kts
24-Mar-17 17:02 34.600915 -118.112471 51 10998ft 223kts
24-Mar-17 17:03 34.629567 -118.051398 78 10999ft 225kts
24-Mar-17 17:04 34.640971 -117.980452 82 10989ft 225kts
24-Mar-17 17:05 34.649050 -117.909771 82 10980ft 226kts
24-Mar-17 17:06 34.657184 -117.838524 82 10969ft 226kts
24-Mar-17 17:07 34.665387 -117.767045 79 10965ft 226kts
24-Mar-17 17:08 34.681418 -117.697743 73 10967ft 226kts
24-Mar-17 17:09 34.697938 -117.627610 73 10970ft 226kts
24-Mar-17 17:10 34.714567 -117.557168 73 10974ft 226kts
24-Mar-17 17:11 34.734461 -117.490047 70 10976ft 225kts
24-Mar-17 17:12 34.751746 -117.421165 72 10973ft 226kts
24-Mar-17 17:13 34.774705 -117.354626 66 10966ft 226kts
24-Mar-17 17:14 34.793037 -117.287337 74 10970ft 226kts
24-Mar-17 17:15 34.808199 -117.217428 75 11070ft 224kts
24-Mar-17 17:16 34.821624 -117.146746 76 11067ft 225kts
24-Mar-17 17:17 34.834739 -117.085857 74 11041ft 227kts
24-Mar-17 17:18 34.851758 -117.015658 72 11033ft 227kts
24-Mar-17 17:19 34.869691 -116.944602 71 11029ft 231kts
24-Mar-17 17:20 34.887832 -116.873117 71 11027ft 231kts
24-Mar-17 17:21 34.905956 -116.801787 71 11028ft 231kts
24-Mar-17 17:22 34.924108 -116.730062 71 11028ft 232kts
24-Mar-17 17:23 34.942059 -116.658784 71 11028ft 233kts
24-Mar-17 17:24 34.960456 -116.586722 66 11027ft 233kts
24-Mar-17 17:25 34.989851 -116.521174 58 11035ft 232kts
24-Mar-17 17:26 35.018164 -116.454137 64 11042ft 235kts
24-Mar-17 17:27 35.046305 -116.386504 62 11049ft 237kts
24-Mar-17 17:28 35.073990 -116.321306 63 11046ft 237kts
24-Mar-17 17:29 35.102203 -116.255115 62 11045ft 237kts
24-Mar-17 17:30 35.131271 -116.188349 62 11043ft 236kts
24-Mar-17 17:31 35.160377 -116.120943 62 11044ft 236kts
24-Mar-17 17:32 35.189485 -116.053293 62 11044ft 236kts
24-Mar-17 17:33 35.217765 -115.987404 62 11044ft 237kts
24-Mar-17 17:34 35.246621 -115.920038 62 11045ft 237kts
24-Mar-17 17:35 35.275543 -115.852295 62 11039ft 237kts
24-Mar-17 17:36 35.306644 -115.787096 42 11034ft 230kts
24-Mar-17 17:37 35.342685 -115.729215 41 11030ft 224kts
24-Mar-17 17:38 35.383514 -115.677441 42 11019ft 224kts
24-Mar-17 17:39 35.426997 -115.629855 39 11019ft 223kts
24-Mar-17 17:40 35.468405 -115.578928 44 11019ft 224kts
24-Mar-17 17:41 35.508482 -115.526063 45 11020ft 224kts
24-Mar-17 17:42 35.548133 -115.472931 45 11020ft 224kts
24-Mar-17 17:43 35.587540 -115.419700 45 11020ft 224kts
24-Mar-17 17:44 35.626909 -115.366425 45 11021ft 224kts
24-Mar-17 17:45 35.664769 -115.314871 46 10870ft 231kts
24-Mar-17 17:46 35.705811 -115.259025 47 10229ft 242kts
24-Mar-17 17:47 35.747757 -115.202052 47 9583ft 243kts
24-Mar-17 17:48 35.789735 -115.144996 47 8937ft 241kts
24-Mar-17 17:49 35.829789 -115.090506 48 8279ft 213kts
24-Mar-17 17:50 35.864160 -115.043710 48 7619ft 189kts
24-Mar-17 17:51 35.896035 -115.000288 47 7043ft 176kts
24-Mar-17 17:52 35.933736 -114.996142 351 7028ft 132kts
24-Mar-17 17:53 35.964377 -114.998496 351 7027ft 105kts
24-Mar-17 17:54 35.989613 -114.999872 351 6949ft 93kts
24-Mar-17 17:55 36.021319 -115.002472 351 7038ft 139kts
24-Mar-17 17:56 36.057028 -115.006260 351 7028ft 138kts
24-Mar-17 17:57 36.092485 -115.010605 352 7023ft 141kts
24-Mar-17 17:58 36.125830 -115.019303 312 6901ft 139kts
24-Mar-17 17:59 36.141553 -115.051274 291 5892ft 108kts
24-Mar-17 18:00 36.153770 -115.080841 295 5071ft 107kts
24-Mar-17 18:01 36.163313 -115.111112 249 4509ft 98kts
24-Mar-17 18:02 36.147287 -115.129179 201 3886ft 96kts
24-Mar-17 18:03 36.126607 -115.141766 199 3181ft 98kts
24-Mar-17 18:04 36.105230 -115.153365 199 2357ft 99kts
24-Mar-17 18:05 36.089338 -115.162457 244 2124ft 14kts
24-Mar-17 18:06 36.089484 -115.163838 304 2128ft 0kts

Navigation Log

Ident Type
Flight plan parsing failed, navigation log unavailable